sensor_id;sensor_type;location;lat;lon;timestamp;pressure;altitude;pressure_sealevel;temperature;humidity
70968;BME280;58629;48.808;8.820;2023-02-15T00:01:30;98398.25;;;-0.76;96.66
70968;BME280;58629;48.808;8.820;2023-02-15T00:03:55;98398.41;;;-0.81;95.61
70968;BME280;58629;48.808;8.820;2023-02-15T00:06:21;98396.38;;;-0.84;95.10
70968;BME280;58629;48.808;8.820;2023-02-15T00:08:46;98398.47;;;-0.95;94.76
70968;BME280;58629;48.808;8.820;2023-02-15T00:11:14;98395.72;;;-0.99;94.66
70968;BME280;58629;48.808;8.820;2023-02-15T00:13:40;98398.94;;;-1.02;95.27
70968;BME280;58629;48.808;8.820;2023-02-15T00:16:12;98394.50;;;-1.01;95.44
70968;BME280;58629;48.808;8.820;2023-02-15T00:18:38;98392.19;;;-1.03;95.58
70968;BME280;58629;48.808;8.820;2023-02-15T00:21:10;98389.44;;;-1.06;95.09
70968;BME280;58629;48.808;8.820;2023-02-15T00:23:36;98386.06;;;-1.07;95.76
70968;BME280;58629;48.808;8.820;2023-02-15T00:26:09;98393.69;;;-1.10;95.10
70968;BME280;58629;48.808;8.820;2023-02-15T00:28:35;98394.78;;;-1.11;95.37
70968;BME280;58629;48.808;8.820;2023-02-15T00:31:04;98399.31;;;-1.17;97.37
70968;BME280;58629;48.808;8.820;2023-02-15T00:33:29;98399.78;;;-1.15;97.66
70968;BME280;58629;48.808;8.820;2023-02-15T00:35:59;98393.06;;;-1.16;96.88
70968;BME280;58629;48.808;8.820;2023-02-15T00:38:26;98403.16;;;-1.14;96.67
70968;BME280;58629;48.808;8.820;2023-02-15T00:40:56;98397.94;;;-1.14;96.34
70968;BME280;58629;48.808;8.820;2023-02-15T00:43:22;98399.19;;;-1.12;96.67
70968;BME280;58629;48.808;8.820;2023-02-15T00:45:48;98388.81;;;-1.12;96.73
70968;BME280;58629;48.808;8.820;2023-02-15T00:48:13;98393.06;;;-1.16;98.09
70968;BME280;58629;48.808;8.820;2023-02-15T00:50:38;98390.47;;;-1.16;98.07
70968;BME280;58629;48.808;8.820;2023-02-15T00:53:04;98387.50;;;-1.23;96.35
70968;BME280;58629;48.808;8.820;2023-02-15T00:55:29;98384.44;;;-1.25;96.44
70968;BME280;58629;48.808;8.820;2023-02-15T00:57:54;98380.63;;;-1.27;96.98
70968;BME280;58629;48.808;8.820;2023-02-15T01:00:20;98383.97;;;-1.27;96.31
70968;BME280;58629;48.808;8.820;2023-02-15T01:02:45;98378.78;;;-1.27;96.34
70968;BME280;58629;48.808;8.820;2023-02-15T01:05:10;98386.19;;;-1.42;93.92
70968;BME280;58629;48.808;8.820;2023-02-15T01:07:35;98385.69;;;-1.53;94.73
70968;BME280;58629;48.808;8.820;2023-02-15T01:10:01;98382.41;;;-1.58;94.99
70968;BME280;58629;48.808;8.820;2023-02-15T01:12:26;98386.94;;;-1.72;95.73
70968;BME280;58629;48.808;8.820;2023-02-15T01:14:52;98379.00;;;-1.67;97.46
70968;BME280;58629;48.808;8.820;2023-02-15T01:17:17;98382.38;;;-1.67;97.04
70968;BME280;58629;48.808;8.820;2023-02-15T01:19:42;98385.16;;;-1.63;96.71
70968;BME280;58629;48.808;8.820;2023-02-15T01:22:08;98379.94;;;-1.63;96.16
70968;BME280;58629;48.808;8.820;2023-02-15T01:24:33;98377.50;;;-1.68;95.70
70968;BME280;58629;48.808;8.820;2023-02-15T01:26:58;98377.13;;;-1.76;95.64
70968;BME280;58629;48.808;8.820;2023-02-15T01:29:23;98376.66;;;-1.78;96.69
70968;BME280;58629;48.808;8.820;2023-02-15T01:31:49;98383.50;;;-1.82;96.94
70968;BME280;58629;48.808;8.820;2023-02-15T01:34:14;98392.22;;;-1.78;96.68
70968;BME280;58629;48.808;8.820;2023-02-15T01:36:39;98389.75;;;-1.83;95.94
70968;BME280;58629;48.808;8.820;2023-02-15T01:39:04;98384.28;;;-1.81;96.25
70968;BME280;58629;48.808;8.820;2023-02-15T01:41:30;98389.47;;;-1.81;96.53
70968;BME280;58629;48.808;8.820;2023-02-15T01:43:58;98389.75;;;-1.83;96.14
70968;BME280;58629;48.808;8.820;2023-02-15T01:46:37;98387.81;;;-1.77;97.39
70968;BME280;58629;48.808;8.820;2023-02-15T01:49:11;98387.97;;;-1.73;96.94
70968;BME280;58629;48.808;8.820;2023-02-15T01:51:37;98379.41;;;-1.74;97.01
70968;BME280;58629;48.808;8.820;2023-02-15T01:54:32;98371.34;;;-1.72;96.49
70968;BME280;58629;48.808;8.820;2023-02-15T01:56:59;98371.94;;;-1.76;96.23
70968;BME280;58629;48.808;8.820;2023-02-15T01:59:26;98369.81;;;-1.73;96.80
70968;BME280;58629;48.808;8.820;2023-02-15T02:01:54;98369.75;;;-1.82;95.22
70968;BME280;58629;48.808;8.820;2023-02-15T02:04:35;98370.22;;;-2.02;94.62
70968;BME280;58629;48.808;8.820;2023-02-15T02:07:05;98376.34;;;-2.20;95.66
70968;BME280;58629;48.808;8.820;2023-02-15T02:09:31;98376.25;;;-2.29;96.41
70968;BME280;58629;48.808;8.820;2023-02-15T02:11:57;98368.34;;;-2.24;98.20
70968;BME280;58629;48.808;8.820;2023-02-15T02:14:23;98374.78;;;-2.21;97.67
70968;BME280;58629;48.808;8.820;2023-02-15T02:16:54;98364.31;;;-2.16;97.75
70968;BME280;58629;48.808;8.820;2023-02-15T02:27:29;98346.72;;;-2.19;97.02
70968;BME280;58629;48.808;8.820;2023-02-15T02:30:35;98351.34;;;-2.16;97.33
70968;BME280;58629;48.808;8.820;2023-02-15T02:36:31;98356.53;;;-2.16;97.17
70968;BME280;58629;48.808;8.820;2023-02-15T02:41:38;98360.28;;;-2.22;95.83
70968;BME280;58629;48.808;8.820;2023-02-15T02:44:16;98357.69;;;-2.22;96.67
70968;BME280;58629;48.808;8.820;2023-02-15T02:46:49;98348.84;;;-2.21;95.85
70968;BME280;58629;48.808;8.820;2023-02-15T02:49:15;98344.72;;;-2.22;96.13
70968;BME280;58629;48.808;8.820;2023-02-15T02:51:40;98344.72;;;-2.22;96.25
70968;BME280;58629;48.808;8.820;2023-02-15T02:54:06;98343.47;;;-2.25;95.26
70968;BME280;58629;48.808;8.820;2023-02-15T02:56:44;98348.88;;;-2.35;94.68
70968;BME280;58629;48.808;8.820;2023-02-15T02:59:16;98344.16;;;-2.33;95.76
70968;BME280;58629;48.808;8.820;2023-02-15T03:01:47;98343.81;;;-2.40;95.15
70968;BME280;58629;48.808;8.820;2023-02-15T03:04:19;98344.88;;;-2.41;95.33
70968;BME280;58629;48.808;8.820;2023-02-15T03:06:56;98339.38;;;-2.39;95.36
70968;BME280;58629;48.808;8.820;2023-02-15T03:09:33;98341.97;;;-2.39;96.03
70968;BME280;58629;48.808;8.820;2023-02-15T03:12:11;98340.44;;;-2.40;95.27
70968;BME280;58629;48.808;8.820;2023-02-15T03:14:39;98330.38;;;-2.42;94.93
70968;BME280;58629;48.808;8.820;2023-02-15T03:17:06;98332.09;;;-2.51;94.83
70968;BME280;58629;48.808;8.820;2023-02-15T03:19:34;98333.19;;;-2.52;95.06
70968;BME280;58629;48.808;8.820;2023-02-15T03:22:05;98326.63;;;-2.49;95.87
70968;BME280;58629;48.808;8.820;2023-02-15T03:25:10;98323.47;;;-2.46;95.46
70968;BME280;58629;48.808;8.820;2023-02-15T03:27:41;98334.59;;;-2.46;96.05
70968;BME280;58629;48.808;8.820;2023-02-15T03:30:08;98334.00;;;-2.43;95.80
70968;BME280;58629;48.808;8.820;2023-02-15T03:32:37;98332.09;;;-2.51;94.65
70968;BME280;58629;48.808;8.820;2023-02-15T03:35:04;98329.81;;;-2.52;95.75
70968;BME280;58629;48.808;8.820;2023-02-15T03:37:38;98341.72;;;-2.51;95.84
70968;BME280;58629;48.808;8.820;2023-02-15T03:40:19;98337.59;;;-2.52;94.78
70968;BME280;58629;48.808;8.820;2023-02-15T03:43:16;98339.88;;;-2.51;95.49
70968;BME280;58629;48.808;8.820;2023-02-15T03:45:45;98339.13;;;-2.51;95.15
70968;BME280;58629;48.808;8.820;2023-02-15T03:48:41;98333.94;;;-2.51;95.21
70968;BME280;58629;48.808;8.820;2023-02-15T03:51:10;98330.09;;;-2.54;94.80
70968;BME280;58629;48.808;8.820;2023-02-15T03:53:57;98322.03;;;-2.52;94.68
70968;BME280;58629;48.808;8.820;2023-02-15T03:56:24;98331.94;;;-2.54;95.52
70968;BME280;58629;48.808;8.820;2023-02-15T03:58:49;98325.41;;;-2.52;96.84
70968;BME280;58629;48.808;8.820;2023-02-15T04:02:16;98327.78;;;-2.55;95.92
70968;BME280;58629;48.808;8.820;2023-02-15T04:04:43;98326.19;;;-2.79;94.21
70968;BME280;58629;48.808;8.820;2023-02-15T04:07:09;98321.41;;;-2.72;96.37
70968;BME280;58629;48.808;8.820;2023-02-15T04:09:35;98320.03;;;-2.69;96.46
70968;BME280;58629;48.808;8.820;2023-02-15T04:12:20;98328.78;;;-2.65;95.95
70968;BME280;58629;48.808;8.820;2023-02-15T04:14:45;98316.59;;;-2.65;96.36
70968;BME280;58629;48.808;8.820;2023-02-15T04:17:29;98315.06;;;-2.66;95.46
70968;BME280;58629;48.808;8.820;2023-02-15T04:19:54;98317.88;;;-2.76;94.90
70968;BME280;58629;48.808;8.820;2023-02-15T04:22:38;98312.09;;;-2.73;95.66
70968;BME280;58629;48.808;8.820;2023-02-15T04:25:22;98308.25;;;-2.75;95.15
70968;BME280;58629;48.808;8.820;2023-02-15T04:27:52;98312.38;;;-2.74;95.86
70968;BME280;58629;48.808;8.820;2023-02-15T04:30:21;98318.03;;;-2.72;95.49
70968;BME280;58629;48.808;8.820;2023-02-15T04:32:46;98323.31;;;-2.77;94.95
70968;BME280;58629;48.808;8.820;2023-02-15T04:35:12;98318.44;;;-2.79;95.33
70968;BME280;58629;48.808;8.820;2023-02-15T04:37:38;98315.06;;;-2.79;95.50
70968;BME280;58629;48.808;8.820;2023-02-15T04:40:05;98315.53;;;-2.77;95.04
70968;BME280;58629;48.808;8.820;2023-02-15T04:42:30;98323.63;;;-2.79;94.69
70968;BME280;58629;48.808;8.820;2023-02-15T04:44:56;98317.47;;;-2.83;94.99
70968;BME280;58629;48.808;8.820;2023-02-15T04:47:21;98326.69;;;-2.90;94.79
70968;BME280;58629;48.808;8.820;2023-02-15T04:49:47;98316.63;;;-2.92;95.32
70968;BME280;58629;48.808;8.820;2023-02-15T04:52:12;98312.66;;;-2.89;95.16
70968;BME280;58629;48.808;8.820;2023-02-15T04:54:38;98309.34;;;-2.90;94.83
70968;BME280;58629;48.808;8.820;2023-02-15T04:57:04;98313.34;;;-3.11;93.91
70968;BME280;58629;48.808;8.820;2023-02-15T04:59:29;98309.53;;;-3.27;95.09
70968;BME280;58629;48.808;8.820;2023-02-15T05:01:54;98309.44;;;-3.35;96.72
70968;BME280;58629;48.808;8.820;2023-02-15T05:04:20;98310.00;;;-3.38;97.07
70968;BME280;58629;48.808;8.820;2023-02-15T05:06:45;98310.00;;;-3.38;98.29
70968;BME280;58629;48.808;8.820;2023-02-15T05:09:11;98299.84;;;-3.35;98.58
70968;BME280;58629;48.808;8.820;2023-02-15T05:11:37;98305.88;;;-3.26;97.93
70968;BME280;58629;48.808;8.820;2023-02-15T05:14:02;98296.78;;;-3.23;98.13
70968;BME280;58629;48.808;8.820;2023-02-15T05:16:27;98300.81;;;-3.17;97.82
70968;BME280;58629;48.808;8.820;2023-02-15T05:18:53;98295.34;;;-3.16;96.21
70968;BME280;58629;48.808;8.820;2023-02-15T05:21:18;98300.13;;;-3.09;96.06
70968;BME280;58629;48.808;8.820;2023-02-15T05:23:44;98300.88;;;-3.09;95.69
70968;BME280;58629;48.808;8.820;2023-02-15T05:26:18;98299.38;;;-3.10;94.64
70968;BME280;58629;48.808;8.820;2023-02-15T05:29:03;98304.16;;;-3.03;95.45
70968;BME280;58629;48.808;8.820;2023-02-15T05:31:28;98300.56;;;-2.67;100.00
70968;BME280;58629;48.808;8.820;2023-02-15T05:33:53;98302.91;;;-2.21;100.00
70968;BME280;58629;48.808;8.820;2023-02-15T05:36:19;98299.22;;;-2.06;100.00
70968;BME280;58629;48.808;8.820;2023-02-15T05:38:44;98295.94;;;-2.12;96.18
70968;BME280;58629;48.808;8.820;2023-02-15T05:41:10;98301.84;;;-2.20;94.27
70968;BME280;58629;48.808;8.820;2023-02-15T05:43:37;98310.91;;;-2.31;93.47
70968;BME280;58629;48.808;8.820;2023-02-15T05:46:02;98304.31;;;-2.37;92.84
70968;BME280;58629;48.808;8.820;2023-02-15T05:48:28;98298.81;;;-2.35;94.98
70968;BME280;58629;48.808;8.820;2023-02-15T05:51:11;98302.34;;;-1.65;100.00
70968;BME280;58629;48.808;8.820;2023-02-15T05:53:39;98303.22;;;-0.91;100.00
70968;BME280;58629;48.808;8.820;2023-02-15T05:56:06;98299.78;;;-0.27;100.00
70968;BME280;58629;48.808;8.820;2023-02-15T05:58:34;98302.16;;;0.30;100.00
70968;BME280;58629;48.808;8.820;2023-02-15T06:00:59;98308.09;;;0.85;100.00
70968;BME280;58629;48.808;8.820;2023-02-15T06:03:25;98306.19;;;1.23;98.84
70968;BME280;58629;48.808;8.820;2023-02-15T06:05:51;98302.00;;;0.81;83.57
70968;BME280;58629;48.808;8.820;2023-02-15T06:08:16;98312.19;;;0.57;82.92
70968;BME280;58629;48.808;8.820;2023-02-15T06:10:42;98315.97;;;0.22;nan
70968;BME280;58629;48.808;8.820;2023-02-15T06:15:33;98322.72;;;-0.71;81.96
70968;BME280;58629;48.808;8.820;2023-02-15T06:17:58;98318.19;;;-0.97;82.46
70968;BME280;58629;48.808;8.820;2023-02-15T06:20:24;98318.25;;;-1.27;82.65
70968;BME280;58629;48.808;8.820;2023-02-15T06:22:49;98312.91;;;-1.61;83.10
70968;BME280;58629;48.808;8.820;2023-02-15T06:25:15;98323.53;;;-1.71;85.90
70968;BME280;58629;48.808;8.820;2023-02-15T06:27:41;98318.28;;;-1.80;86.67
70968;BME280;58629;48.808;8.820;2023-02-15T06:30:07;98318.50;;;-1.99;86.48
70968;BME280;58629;48.808;8.820;2023-02-15T06:32:33;98326.50;;;-2.09;88.10
70968;BME280;58629;48.808;8.820;2023-02-15T06:34:58;98329.91;;;-2.22;88.61
70968;BME280;58629;48.808;8.820;2023-02-15T06:37:24;98335.91;;;-2.35;87.83
70968;BME280;58629;48.808;8.820;2023-02-15T06:39:49;98331.91;;;-2.41;88.20
70968;BME280;58629;48.808;8.820;2023-02-15T06:42:14;98335.41;;;-2.73;88.02
70968;BME280;58629;48.808;8.820;2023-02-15T06:44:40;98342.53;;;-2.92;89.70
70968;BME280;58629;48.808;8.820;2023-02-15T06:47:05;98344.66;;;-2.80;91.10
70968;BME280;58629;48.808;8.820;2023-02-15T06:49:30;98345.69;;;-2.81;91.66
70968;BME280;58629;48.808;8.820;2023-02-15T06:51:56;98345.41;;;-2.80;92.42
70968;BME280;58629;48.808;8.820;2023-02-15T06:54:21;98347.91;;;-2.75;92.13
70968;BME280;58629;48.808;8.820;2023-02-15T06:56:46;98349.94;;;-2.72;91.53
70968;BME280;58629;48.808;8.820;2023-02-15T06:59:11;98347.13;;;-2.75;91.75
70968;BME280;58629;48.808;8.820;2023-02-15T07:01:37;98346.56;;;-2.86;90.87
70968;BME280;58629;48.808;8.820;2023-02-15T07:04:03;98354.91;;;-3.02;91.34
70968;BME280;58629;48.808;8.820;2023-02-15T07:06:34;98348.66;;;-3.15;93.37
70968;BME280;58629;48.808;8.820;2023-02-15T07:09:00;98351.94;;;-3.23;94.75
70968;BME280;58629;48.808;8.820;2023-02-15T07:11:26;98344.94;;;-3.22;95.26
70968;BME280;58629;48.808;8.820;2023-02-15T07:14:10;98342.94;;;-3.12;96.22
70968;BME280;58629;48.808;8.820;2023-02-15T07:16:35;98338.03;;;-3.00;96.23
70968;BME280;58629;48.808;8.820;2023-02-15T07:19:00;98333.13;;;-2.88;96.31
70968;BME280;58629;48.808;8.820;2023-02-15T07:21:27;98339.47;;;-2.80;95.29
70968;BME280;58629;48.808;8.820;2023-02-15T07:23:52;98334.84;;;-2.83;94.25
70968;BME280;58629;48.808;8.820;2023-02-15T07:26:17;98342.34;;;-2.82;94.64
70968;BME280;58629;48.808;8.820;2023-02-15T07:28:43;98339.56;;;-2.72;95.33
70968;BME280;58629;48.808;8.820;2023-02-15T07:31:08;98341.00;;;-2.66;94.53
70968;BME280;58629;48.808;8.820;2023-02-15T07:33:34;98344.53;;;-2.61;95.07
70968;BME280;58629;48.808;8.820;2023-02-15T07:36:01;98341.16;;;-2.62;95.26
70968;BME280;58629;48.808;8.820;2023-02-15T07:38:32;98349.72;;;-2.61;95.39
70968;BME280;58629;48.808;8.820;2023-02-15T07:40:59;98348.34;;;-2.59;95.96
70968;BME280;58629;48.808;8.820;2023-02-15T07:43:24;98343.44;;;-2.47;95.99
70968;BME280;58629;48.808;8.820;2023-02-15T07:45:50;98345.81;;;-2.37;96.68
70968;BME280;58629;48.808;8.820;2023-02-15T07:48:15;98346.66;;;-2.28;96.27
70968;BME280;58629;48.808;8.820;2023-02-15T07:50:40;98343.34;;;-2.20;95.83
70968;BME280;58629;48.808;8.820;2023-02-15T07:53:06;98343.72;;;-2.13;95.92
70968;BME280;58629;48.808;8.820;2023-02-15T07:55:34;98351.03;;;-2.15;95.26
70968;BME280;58629;48.808;8.820;2023-02-15T07:57:59;98350.03;;;-2.05;95.36
70968;BME280;58629;48.808;8.820;2023-02-15T08:00:25;98357.13;;;-1.97;95.24
70968;BME280;58629;48.808;8.820;2023-02-15T08:02:51;98353.66;;;-1.93;95.24
70968;BME280;58629;48.808;8.820;2023-02-15T08:05:37;98352.47;;;-1.87;95.57
70968;BME280;58629;48.808;8.820;2023-02-15T08:08:03;98348.50;;;-1.84;95.32
70968;BME280;58629;48.808;8.820;2023-02-15T08:10:29;98344.13;;;-1.75;96.14
70968;BME280;58629;48.808;8.820;2023-02-15T08:13:13;98344.94;;;-1.66;95.98
70968;BME280;58629;48.808;8.820;2023-02-15T08:15:38;98346.97;;;-1.63;95.96
70968;BME280;58629;48.808;8.820;2023-02-15T08:18:03;98344.84;;;-1.61;96.24
70968;BME280;58629;48.808;8.820;2023-02-15T08:20:28;98340.44;;;-1.52;96.67
70968;BME280;58629;48.808;8.820;2023-02-15T08:22:54;98336.34;;;-1.44;97.18
70968;BME280;58629;48.808;8.820;2023-02-15T08:25:19;98332.91;;;-1.31;97.55
70968;BME280;58629;48.808;8.820;2023-02-15T08:27:44;98330.53;;;-1.19;97.65
70968;BME280;58629;48.808;8.820;2023-02-15T08:30:10;98330.53;;;-1.11;97.34
70968;BME280;58629;48.808;8.820;2023-02-15T08:32:36;98334.84;;;-1.06;96.52
70968;BME280;58629;48.808;8.820;2023-02-15T08:35:02;98319.13;;;-1.01;96.33
70968;BME280;58629;48.808;8.820;2023-02-15T08:37:27;98330.44;;;-0.97;96.25
70968;BME280;58629;48.808;8.820;2023-02-15T08:39:52;98336.66;;;-1.07;96.01
70968;BME280;58629;48.808;8.820;2023-02-15T08:42:17;98330.56;;;-1.02;97.11
70968;BME280;58629;48.808;8.820;2023-02-15T08:44:45;98324.94;;;-0.96;97.37
70968;BME280;58629;48.808;8.820;2023-02-15T08:47:10;98330.75;;;-0.90;97.95
70968;BME280;58629;48.808;8.820;2023-02-15T08:49:35;98326.22;;;-0.76;98.06
70968;BME280;58629;48.808;8.820;2023-02-15T08:52:00;98325.78;;;-0.69;97.30
70968;BME280;58629;48.808;8.820;2023-02-15T08:54:26;98325.00;;;-0.53;98.09
70968;BME280;58629;48.808;8.820;2023-02-15T08:56:51;98321.81;;;-0.41;97.81
70968;BME280;58629;48.808;8.820;2023-02-15T08:59:18;98328.72;;;-0.28;97.58
70968;BME280;58629;48.808;8.820;2023-02-15T09:01:45;98325.19;;;-0.15;97.76
70968;BME280;58629;48.808;8.820;2023-02-15T09:04:11;98318.91;;;-0.06;96.93
70968;BME280;58629;48.808;8.820;2023-02-15T09:06:38;98318.91;;;0.03;96.34
70968;BME280;58629;48.808;8.820;2023-02-15T09:09:04;98320.72;;;0.11;95.80
70968;BME280;58629;48.808;8.820;2023-02-15T09:11:34;98319.78;;;0.24;96.25
70968;BME280;58629;48.808;8.820;2023-02-15T09:14:01;98309.03;;;0.34;95.70
70968;BME280;58629;48.808;8.820;2023-02-15T09:16:29;98305.94;;;0.49;96.13
70968;BME280;58629;48.808;8.820;2023-02-15T09:18:56;98314.75;;;0.65;95.33
70968;BME280;58629;48.808;8.820;2023-02-15T09:21:26;98302.78;;;0.73;94.81
70968;BME280;58629;48.808;8.820;2023-02-15T09:23:57;98304.72;;;0.84;94.23
70968;BME280;58629;48.808;8.820;2023-02-15T09:26:24;98301.94;;;0.89;94.16
70968;BME280;58629;48.808;8.820;2023-02-15T09:28:56;98298.06;;;0.96;94.26
70968;BME280;58629;48.808;8.820;2023-02-15T09:31:30;98299.53;;;1.05;94.15
70968;BME280;58629;48.808;8.820;2023-02-15T09:33:57;98296.28;;;1.17;93.48
70968;BME280;58629;48.808;8.820;2023-02-15T09:36:25;98291.00;;;1.25;93.26
70968;BME280;58629;48.808;8.820;2023-02-15T09:38:57;98285.22;;;1.40;93.10
70968;BME280;58629;48.808;8.820;2023-02-15T09:44:47;98282.97;;;1.71;92.17
70968;BME280;58629;48.808;8.820;2023-02-15T10:11:38;98271.53;;;3.26;86.27
70968;BME280;58629;48.808;8.820;2023-02-15T10:25:06;98264.44;;;3.94;82.62
70968;BME280;58629;48.808;8.820;2023-02-15T10:27:44;98268.59;;;4.10;82.78
70968;BME280;58629;48.808;8.820;2023-02-15T10:30:12;98263.72;;;4.24;82.22
70968;BME280;58629;48.808;8.820;2023-02-15T10:33:00;98261.53;;;4.42;81.69
70968;BME280;58629;48.808;8.820;2023-02-15T10:35:43;98255.88;;;4.56;81.72
70968;BME280;58629;48.808;8.820;2023-02-15T10:38:40;98247.75;;;4.76;81.47
70968;BME280;58629;48.808;8.820;2023-02-15T10:41:34;98246.94;;;4.91;80.22
70968;BME280;58629;48.808;8.820;2023-02-15T10:46:58;98246.00;;;5.15;79.01
70968;BME280;58629;48.808;8.820;2023-02-15T11:03:46;98231.34;;;5.90;75.53
70968;BME280;58629;48.808;8.820;2023-02-15T11:06:16;98229.34;;;6.03;76.16
70968;BME280;58629;48.808;8.820;2023-02-15T11:08:50;98226.94;;;6.17;75.04
70968;BME280;58629;48.808;8.820;2023-02-15T11:11:23;98223.44;;;6.32;74.81
70968;BME280;58629;48.808;8.820;2023-02-15T11:13:53;98216.63;;;6.54;72.13
70968;BME280;58629;48.808;8.820;2023-02-15T11:16:25;98224.34;;;6.66;71.41
70968;BME280;58629;48.808;8.820;2023-02-15T11:21:43;98222.13;;;6.94;73.65
70968;BME280;58629;48.808;8.820;2023-02-15T11:24:18;98217.94;;;7.19;73.90
70968;BME280;58629;48.808;8.820;2023-02-15T11:26:51;98213.66;;;7.37;71.11
70968;BME280;58629;48.808;8.820;2023-02-15T11:29:33;98204.91;;;7.59;70.80
70968;BME280;58629;48.808;8.820;2023-02-15T11:37:33;98207.97;;;8.42;71.82
70968;BME280;58629;48.808;8.820;2023-02-15T11:40:01;98201.78;;;8.71;71.25
70968;BME280;58629;48.808;8.820;2023-02-15T11:42:30;98196.22;;;8.87;65.04
70968;BME280;58629;48.808;8.820;2023-02-15T11:45:27;98193.59;;;8.90;61.71
70968;BME280;58629;48.808;8.820;2023-02-15T11:47:54;98193.22;;;8.92;62.62
70968;BME280;58629;48.808;8.820;2023-02-15T11:50:23;98188.00;;;9.02;59.41
70968;BME280;58629;48.808;8.820;2023-02-15T11:52:56;98181.28;;;9.15;61.27
70968;BME280;58629;48.808;8.820;2023-02-15T11:55:23;98182.47;;;9.25;61.27
70968;BME280;58629;48.808;8.820;2023-02-15T12:00:42;98179.13;;;9.38;60.70
70968;BME280;58629;48.808;8.820;2023-02-15T12:03:18;98180.66;;;9.46;64.14
70968;BME280;58629;48.808;8.820;2023-02-15T12:05:49;98169.00;;;9.69;68.67
70968;BME280;58629;48.808;8.820;2023-02-15T12:08:19;98162.59;;;9.70;71.64
70968;BME280;58629;48.808;8.820;2023-02-15T12:11:00;98162.59;;;9.77;72.07
70968;BME280;58629;48.808;8.820;2023-02-15T12:13:28;98166.75;;;9.85;73.42
70968;BME280;58629;48.808;8.820;2023-02-15T12:15:57;98157.72;;;9.86;70.93
70968;BME280;58629;48.808;8.820;2023-02-15T12:18:38;98158.09;;;9.95;70.29
70968;BME280;58629;48.808;8.820;2023-02-15T12:21:31;98163.75;;;10.00;71.29
70968;BME280;58629;48.808;8.820;2023-02-15T12:24:03;98157.72;;;10.03;70.24
70968;BME280;58629;48.808;8.820;2023-02-15T12:26:32;98158.50;;;10.14;69.86
70968;BME280;58629;48.808;8.820;2023-02-15T12:29:01;98156.63;;;10.22;70.32
70968;BME280;58629;48.808;8.820;2023-02-15T12:31:36;98157.38;;;10.29;68.92
70968;BME280;58629;48.808;8.820;2023-02-15T12:34:11;98158.50;;;10.32;68.24
70968;BME280;58629;48.808;8.820;2023-02-15T12:36:43;98152.47;;;10.35;68.07
70968;BME280;58629;48.808;8.820;2023-02-15T12:41:36;98148.28;;;10.55;67.52
70968;BME280;58629;48.808;8.820;2023-02-15T12:44:29;98140.31;;;10.62;64.54
70968;BME280;58629;48.808;8.820;2023-02-15T12:47:02;98141.06;;;10.73;64.99
70968;BME280;58629;48.808;8.820;2023-02-15T12:49:36;98133.09;;;10.87;65.62
70968;BME280;58629;48.808;8.820;2023-02-15T12:52:05;98131.56;;;10.93;63.18
70968;BME280;58629;48.808;8.820;2023-02-15T12:54:38;98137.22;;;10.99;63.37
70968;BME280;58629;48.808;8.820;2023-02-15T12:57:24;98126.56;;;11.13;61.97
70968;BME280;58629;48.808;8.820;2023-02-15T13:00:36;98134.81;;;11.29;58.99
70968;BME280;58629;48.808;8.820;2023-02-15T13:02:47;98129.13;;;11.30;53.90
70968;BME280;58629;48.808;8.820;2023-02-15T13:05:26;98123.44;;;11.32;51.61
70968;BME280;58629;48.808;8.820;2023-02-15T13:07:57;98128.69;;;11.39;50.64
70968;BME280;58629;48.808;8.820;2023-02-15T13:10:36;98124.16;;;11.40;50.02
70968;BME280;58629;48.808;8.820;2023-02-15T13:13:10;98119.25;;;11.38;50.60
70968;BME280;58629;48.808;8.820;2023-02-15T13:15:41;98121.50;;;11.40;51.76
70968;BME280;58629;48.808;8.820;2023-02-15T13:18:16;98110.19;;;11.32;51.34
70968;BME280;58629;48.808;8.820;2023-02-15T13:20:44;98112.47;;;11.30;51.18
70968;BME280;58629;48.808;8.820;2023-02-15T13:23:29;98111.69;;;11.29;50.91
70968;BME280;58629;48.808;8.820;2023-02-15T13:25:59;98105.66;;;11.25;50.14
70968;BME280;58629;48.808;8.820;2023-02-15T13:28:40;98099.97;;;11.23;52.50
70968;BME280;58629;48.808;8.820;2023-02-15T13:31:15;98095.06;;;11.25;53.25
70968;BME280;58629;48.808;8.820;2023-02-15T13:33:46;98089.75;;;11.25;55.46
70968;BME280;58629;48.808;8.820;2023-02-15T13:42:00;98082.88;;;11.35;53.65
70968;BME280;58629;48.808;8.820;2023-02-15T13:52:22;98084.41;;;11.36;52.51
70968;BME280;58629;48.808;8.820;2023-02-15T13:55:23;98078.34;;;11.32;52.50
70968;BME280;58629;48.808;8.820;2023-02-15T13:58:07;98078.34;;;11.32;52.78
70968;BME280;58629;48.808;8.820;2023-02-15T14:06:30;98073.03;;;11.35;49.08
70968;BME280;58629;48.808;8.820;2023-02-15T14:09:19;98075.66;;;11.39;50.20
70968;BME280;58629;48.808;8.820;2023-02-15T14:14:52;98070.69;;;11.48;51.46
70968;BME280;58629;48.808;8.820;2023-02-15T14:22:57;98068.13;;;11.34;51.23
70968;BME280;58629;48.808;8.820;2023-02-15T14:25:45;98063.56;;;11.31;49.17
70968;BME280;58629;48.808;8.820;2023-02-15T14:28:15;98076.84;;;11.31;49.81
70968;BME280;58629;48.808;8.820;2023-02-15T14:30:48;98074.59;;;11.26;51.76
70968;BME280;58629;48.808;8.820;2023-02-15T14:35:40;98075.75;;;11.25;52.02
70968;BME280;58629;48.808;8.820;2023-02-15T14:38:15;98084.41;;;11.29;51.73
70968;BME280;58629;48.808;8.820;2023-02-15T14:49:03;98081.13;;;11.07;55.04
70968;BME280;58629;48.808;8.820;2023-02-15T14:54:08;98088.41;;;10.89;53.65
70968;BME280;58629;48.808;8.820;2023-02-15T14:56:33;98099.03;;;10.82;52.71
70968;BME280;58629;48.808;8.820;2023-02-15T14:59:21;98093.34;;;10.80;53.85
70968;BME280;58629;48.808;8.820;2023-02-15T15:04:37;98081.28;;;10.69;53.80
70968;BME280;58629;48.808;8.820;2023-02-15T15:09:34;98090.75;;;10.66;52.31
70968;BME280;58629;48.808;8.820;2023-02-15T15:12:57;98081.34;;;10.48;53.22
70968;BME280;58629;48.808;8.820;2023-02-15T15:15:04;98083.63;;;10.35;54.32
70968;BME280;58629;48.808;8.820;2023-02-15T15:22:29;98091.22;;;10.15;57.03
70968;BME280;58629;48.808;8.820;2023-02-15T15:25:00;98089.66;;;10.00;57.34
70968;BME280;58629;48.808;8.820;2023-02-15T15:32:52;98101.75;;;9.77;56.85
70968;BME280;58629;48.808;8.820;2023-02-15T15:42:12;98105.88;;;9.46;57.16
70968;BME280;58629;48.808;8.820;2023-02-15T15:49:40;98104.66;;;9.19;63.05
70968;BME280;58629;48.808;8.820;2023-02-15T15:52:18;98103.09;;;9.07;64.39
70968;BME280;58629;48.808;8.820;2023-02-15T15:54:46;98105.34;;;8.98;64.73